Auburn, WA (98071)

5:18 AM PDT on August 19, 2017 (GMT -0700)
Downtown Auburn | | Change Station

Elev 82 ft 47.31 °N, 122.23 °W | Updated 18 minutes ago

Overcast
Overcast
63.6 °F
Feels Like 63.6 °F
N
0.0
Wind Variable Wind from North
Gusts 4.0 mph

Today
High -- | Low -- °F
--% Chance of Precip.
Yesterday
High -- | Low -- °F
Precip. -- in
Pressure 30.18 in
Visibility 10.0 miles
Clouds Few 2300 ft
Mostly Cloudy 3500 ft
Mostly Cloudy 5500 ft
Dew Point 51 °F
Humidity 64%
Rainfall 0.00 in
Snow Depth Not available.
6:11 AM 8:12 PM
Waning Crescent, 7% visible
METAR KSEA 191153Z 04008KT 10SM FEW023 BKN035 BKN055 16/09 A3017 RMK AO2 SLP219 T01610094 10200 20161 50004
Pressure 30.18 in
Visibility 10.0 miles
Clouds Few 2300 ft
Mostly Cloudy 3500 ft
Mostly Cloudy 5500 ft
Dew Point 51 °F
Humidity 64%
Rainfall 0.00 in
Snow Depth Not available.
6:11 AM 8:12 PM
Waning Crescent, 7% visible
METAR KSEA 191153Z 04008KT 10SM FEW023 BKN035 BKN055 16/09 A3017 RMK AO2 SLP219 T01610094 10200 20161 50004

Get Severe Weather Alerts

Thanks for signing up!

Be on the lookout for a verification email in your inbox.

You'll start receiving the daily forecast at 6 AM.

×

10-Day Weather Forecast

Almanac

Astronomy

Aug. 19, 2017 Rise Set
Actual Time
Civil Twilight
Nautical Twilight
Astronomical Twilight
Moon
Length of Visible Light
Length of Day
Tomorrow will be .
, % of the Moon is Illuminated

Today's Extremes

State Highs State Lows

Community

WunderPhotos

Category 6

Welcome to Category 6. This is the collective home for Weather Underground's featured writeups by Dr. Jeff Masters (right), Bob Henson (left), Chris Burt, and other regular contributors.

Nearby

Air Quality

  Air Quality AQ Index Pollutant
Not available.

Snow Depth

Station Depth Elevation

Earthquake Activity

City Distance Mag. Time & Date
Minimum magnitude displayed is 2.5.

Coastal Water Temperatures

Place Temperature

Stations

Nearby Weather Stations

Station Location Temp. Windchill Dew Point Humidity Wind Precip. Elev Updated Type
                   

Watches & Warnings

There are currently no watches in effect.